createdAt,value
2018-02-09T00:01:37.149Z,0.00
2018-02-09T00:02:37.053Z,0.00
2018-02-09T00:04:29.210Z,0.00
2018-02-09T00:05:28.757Z,0.00
2018-02-09T00:07:20.490Z,0.00
2018-02-09T00:08:20.484Z,0.00
2018-02-09T00:10:12.219Z,0.00
2018-02-09T00:11:12.150Z,0.00
2018-02-09T00:13:04.134Z,0.00
2018-02-09T00:14:04.023Z,0.00
2018-02-09T00:15:55.765Z,0.00
2018-02-09T00:16:55.668Z,0.00
2018-02-09T00:18:47.385Z,0.00
2018-02-09T00:19:47.298Z,0.00
2018-02-09T00:21:39.054Z,0.00
2018-02-09T00:22:38.977Z,0.00
2018-02-09T00:24:30.940Z,0.00
2018-02-09T00:25:30.905Z,0.00
2018-02-09T00:27:22.637Z,0.00
2018-02-09T00:28:22.518Z,0.00
2018-02-09T00:30:14.286Z,0.00
2018-02-09T00:31:14.247Z,0.00
2018-02-09T00:33:06.276Z,0.00
2018-02-09T00:34:06.044Z,0.00
2018-02-09T00:35:57.800Z,0.00
2018-02-09T00:36:57.727Z,0.00
2018-02-09T00:38:49.630Z,0.00
2018-02-09T00:39:49.681Z,0.00
2018-02-09T00:41:41.339Z,0.00
2018-02-09T00:42:41.742Z,0.00
2018-02-09T00:44:33.015Z,0.00
2018-02-09T00:45:32.924Z,0.00
2018-02-09T00:47:24.889Z,0.00
2018-02-09T00:48:24.534Z,0.00
2018-02-09T00:50:16.350Z,0.00
2018-02-09T00:51:16.221Z,0.00
2018-02-09T00:53:08.143Z,0.00
2018-02-09T00:54:07.868Z,0.00
2018-02-09T00:55:59.790Z,0.00
2018-02-09T00:56:59.655Z,0.00
2018-02-09T00:58:51.526Z,0.00
2018-02-09T00:59:51.430Z,0.00
2018-02-09T01:01:43.257Z,0.00
2018-02-09T01:02:43.169Z,0.00
2018-02-09T01:04:34.909Z,0.00
2018-02-09T01:05:34.840Z,0.00
2018-02-09T01:07:26.645Z,0.00
2018-02-09T01:08:26.563Z,0.00
2018-02-09T01:10:18.977Z,0.00
2018-02-09T01:11:18.274Z,0.00
2018-02-09T01:13:10.117Z,0.00
2018-02-09T01:14:09.924Z,0.00
2018-02-09T01:16:01.720Z,0.00
2018-02-09T01:17:01.572Z,0.00
2018-02-09T01:18:53.428Z,0.00
2018-02-09T01:19:53.221Z,0.00
2018-02-09T01:21:46.726Z,0.00
2018-02-09T01:22:44.938Z,0.00
2018-02-09T01:24:36.684Z,0.00
2018-02-09T01:25:36.572Z,0.00
2018-02-09T01:27:28.467Z,0.00
2018-02-09T01:28:28.246Z,0.00
2018-02-09T01:30:20.181Z,0.00
2018-02-09T01:31:20.066Z,0.00
2018-02-09T01:33:11.849Z,0.00
2018-02-09T01:34:11.921Z,0.00
2018-02-09T01:36:03.653Z,0.00
2018-02-09T01:37:03.516Z,0.00
2018-02-09T01:38:55.299Z,0.00
2018-02-09T01:39:55.217Z,0.00
2018-02-09T01:41:46.988Z,0.00
2018-02-09T01:42:46.896Z,0.00
2018-02-09T01:44:38.732Z,0.00
2018-02-09T01:45:38.569Z,0.00
2018-02-09T01:47:30.630Z,0.00
2018-02-09T01:48:30.317Z,0.00
2018-02-09T01:50:22.111Z,0.00
2018-02-09T01:51:22.069Z,0.00
2018-02-09T01:53:13.869Z,0.00
2018-02-09T01:54:13.806Z,0.00
2018-02-09T01:56:05.585Z,0.00
2018-02-09T01:57:05.505Z,0.00
2018-02-09T01:58:57.388Z,0.00
2018-02-09T01:59:57.172Z,0.00
2018-02-09T02:01:49.555Z,0.00
2018-02-09T02:02:49.456Z,0.00
2018-02-09T02:04:41.130Z,0.00
2018-02-09T02:05:41.063Z,0.00
2018-02-09T02:07:32.833Z,0.00
2018-02-09T02:08:32.740Z,0.00
2018-02-09T02:10:24.616Z,0.00
2018-02-09T02:11:24.459Z,0.00
2018-02-09T02:13:16.189Z,0.00
2018-02-09T02:14:16.237Z,0.00
2018-02-09T02:16:08.185Z,0.00
2018-02-09T02:17:07.988Z,0.00
2018-02-09T02:18:59.865Z,0.00
2018-02-09T02:19:59.870Z,0.00
2018-02-09T02:21:51.454Z,0.00
2018-02-09T02:22:51.717Z,0.00
2018-02-09T02:24:43.174Z,0.00
2018-02-09T02:25:43.132Z,0.00
2018-02-09T02:27:34.919Z,0.00
2018-02-09T02:28:34.838Z,0.00
2018-02-09T02:30:27.191Z,0.00
2018-02-09T02:31:26.614Z,0.00
2018-02-09T02:33:18.315Z,0.00
2018-02-09T02:34:18.123Z,0.00
2018-02-09T02:36:09.920Z,0.00
2018-02-09T02:37:09.775Z,0.00
2018-02-09T02:39:01.646Z,0.00
2018-02-09T02:40:01.568Z,0.00
2018-02-09T02:41:53.476Z,0.00
2018-02-09T02:42:53.453Z,0.00
2018-02-09T02:44:45.104Z,0.00
2018-02-09T02:45:45.173Z,0.00
2018-02-09T02:47:36.911Z,0.00
2018-02-09T02:48:36.766Z,0.00
2018-02-09T02:50:28.708Z,0.00
2018-02-09T02:51:28.478Z,0.00
2018-02-09T02:53:20.250Z,0.00
2018-02-09T02:54:20.240Z,0.00
2018-02-09T02:56:12.007Z,0.00
2018-02-09T02:57:11.861Z,0.00
2018-02-09T02:59:04.273Z,0.00
2018-02-09T03:00:03.578Z,0.00
2018-02-09T03:01:55.244Z,0.00
2018-02-09T03:02:55.167Z,0.00
2018-02-09T03:04:47.003Z,0.00
2018-02-09T03:05:47.025Z,0.00
2018-02-09T03:07:38.787Z,0.00
2018-02-09T03:08:38.639Z,0.00
2018-02-09T03:10:31.096Z,0.00
2018-02-09T03:11:30.268Z,0.00
2018-02-09T03:13:22.019Z,0.00
2018-02-09T03:14:22.050Z,0.00
2018-02-09T03:16:13.854Z,0.00
2018-02-09T03:17:13.770Z,0.00
2018-02-09T03:19:05.446Z,0.00
2018-02-09T03:20:05.383Z,0.00
2018-02-09T03:21:57.118Z,0.00
2018-02-09T03:22:57.037Z,0.00
2018-02-09T03:24:48.777Z,0.00
2018-02-09T03:25:48.688Z,0.00
2018-02-09T03:27:41.362Z,0.00
2018-02-09T03:28:40.373Z,0.00
2018-02-09T03:30:32.094Z,0.00
2018-02-09T03:31:31.991Z,0.00
2018-02-09T03:33:23.753Z,0.00
2018-02-09T03:34:23.680Z,0.00
2018-02-09T03:36:15.431Z,0.00
2018-02-09T03:37:15.352Z,0.00
2018-02-09T03:39:07.108Z,0.00
2018-02-09T03:40:07.055Z,0.00
2018-02-09T03:41:58.820Z,0.00
2018-02-09T03:42:58.756Z,0.00
2018-02-09T03:44:50.561Z,0.00
2018-02-09T03:45:50.478Z,0.00
2018-02-09T03:47:42.181Z,0.00
2018-02-09T03:48:42.111Z,0.00
2018-02-09T03:50:34.026Z,0.00
2018-02-09T03:51:33.909Z,0.00
2018-02-09T03:53:25.648Z,0.00
2018-02-09T03:54:25.555Z,0.00
2018-02-09T03:56:17.482Z,0.00
2018-02-09T03:57:17.331Z,0.00
2018-02-09T03:59:09.167Z,0.00
2018-02-09T04:00:09.151Z,0.00
2018-02-09T04:02:00.962Z,0.00
2018-02-09T04:03:00.788Z,0.00
2018-02-09T04:04:52.671Z,0.00
2018-02-09T04:05:52.479Z,0.00
2018-02-09T04:07:44.269Z,0.00
2018-02-09T04:08:44.180Z,0.00
2018-02-09T04:10:36.184Z,0.00
2018-02-09T04:11:36.092Z,0.00
2018-02-09T04:13:28.050Z,0.00
2018-02-09T04:14:28.071Z,0.00
2018-02-09T04:16:19.902Z,0.00
2018-02-09T04:17:19.659Z,0.00
2018-02-09T04:19:11.559Z,0.00
2018-02-09T04:20:11.407Z,0.00
2018-02-09T04:22:03.158Z,0.00
2018-02-09T04:23:03.164Z,0.00
2018-02-09T04:24:54.895Z,0.00
2018-02-09T04:25:54.809Z,0.00
2018-02-09T04:27:49.718Z,0.00
2018-02-09T04:28:46.535Z,0.00
2018-02-09T04:30:38.416Z,0.00
2018-02-09T04:31:38.324Z,0.00
2018-02-09T04:33:30.297Z,0.00
2018-02-09T04:34:30.299Z,0.00
2018-02-09T04:36:22.192Z,0.00
2018-02-09T04:37:22.070Z,0.00
2018-02-09T04:39:13.794Z,0.00
2018-02-09T04:40:13.725Z,0.00
2018-02-09T04:42:05.511Z,0.00
2018-02-09T04:43:05.424Z,0.00
2018-02-09T04:44:57.237Z,0.00
2018-02-09T04:45:57.116Z,0.00
2018-02-09T04:47:49.105Z,0.00
2018-02-09T04:48:48.942Z,0.00
2018-02-09T04:50:40.777Z,0.00
2018-02-09T04:51:40.634Z,0.00
2018-02-09T04:53:32.423Z,0.00
2018-02-09T04:54:32.390Z,0.00
2018-02-09T04:56:24.150Z,0.00
2018-02-09T04:57:24.095Z,0.00
2018-02-09T04:59:15.929Z,0.00
2018-02-09T05:00:15.841Z,0.00
2018-02-09T05:02:07.931Z,0.00
2018-02-09T05:03:07.542Z,0.00
2018-02-09T05:04:59.999Z,0.00
2018-02-09T05:05:59.233Z,0.00
2018-02-09T05:07:50.996Z,0.00
2018-02-09T05:08:50.903Z,0.00
2018-02-09T05:10:42.720Z,0.00
2018-02-09T05:11:42.625Z,0.00
2018-02-09T05:13:34.360Z,0.00
2018-02-09T05:14:34.259Z,0.00
2018-02-09T05:16:25.991Z,0.00
2018-02-09T05:17:25.912Z,0.00
2018-02-09T05:19:17.694Z,0.00
2018-02-09T05:20:17.597Z,0.00
2018-02-09T05:22:09.332Z,0.00
2018-02-09T05:23:09.253Z,0.00
2018-02-09T05:25:01.001Z,0.00
2018-02-09T05:26:00.918Z,0.00
2018-02-09T05:27:52.837Z,0.00
2018-02-09T05:28:52.736Z,0.00
2018-02-09T05:30:44.473Z,0.00
2018-02-09T05:31:44.390Z,0.00
2018-02-09T05:33:36.147Z,0.00
2018-02-09T05:34:36.101Z,0.00
2018-02-09T05:36:28.111Z,0.00
2018-02-09T05:37:27.881Z,0.00
2018-02-09T05:39:19.659Z,0.00
2018-02-09T05:40:19.562Z,0.00
2018-02-09T05:42:11.325Z,0.00
2018-02-09T05:43:11.221Z,0.00
2018-02-09T05:45:03.088Z,0.00
2018-02-09T05:46:02.915Z,0.00
2018-02-09T05:47:54.668Z,0.00
2018-02-09T05:48:54.649Z,0.00
2018-02-09T05:50:46.444Z,0.00
2018-02-09T05:51:46.256Z,0.00
2018-02-09T05:53:37.985Z,0.00
2018-02-09T05:54:37.917Z,0.00
2018-02-09T05:56:29.674Z,0.00
2018-02-09T05:57:29.592Z,4.00
2018-02-09T05:59:21.351Z,0.00
2018-02-09T06:00:21.245Z,0.00
2018-02-09T06:02:13.035Z,0.00
2018-02-09T06:03:12.938Z,4.00
2018-02-09T06:05:04.794Z,8.00
2018-02-09T06:06:04.599Z,8.00
2018-02-09T06:07:56.381Z,8.00
2018-02-09T06:08:56.283Z,12.00
2018-02-09T06:10:48.041Z,16.00
2018-02-09T06:11:48.020Z,16.00
2018-02-09T06:13:39.820Z,24.00
2018-02-09T06:14:39.612Z,28.00
2018-02-09T06:16:31.723Z,36.00
2018-02-09T06:17:31.539Z,36.00
2018-02-09T06:19:23.245Z,48.00
2018-02-09T06:20:23.168Z,48.00
2018-02-09T06:22:15.142Z,56.00
2018-02-09T06:23:14.905Z,64.00
2018-02-09T06:25:06.630Z,80.00
2018-02-09T06:26:06.514Z,88.00
2018-02-09T06:27:58.362Z,100.00
2018-02-09T06:28:58.279Z,108.00
2018-02-09T06:30:49.970Z,132.00
2018-02-09T06:31:49.867Z,140.00
2018-02-09T06:33:41.668Z,160.00
2018-02-09T06:34:41.539Z,172.00
2018-02-09T06:36:35.049Z,196.00
2018-02-09T06:37:33.234Z,216.00
2018-02-09T06:39:25.153Z,260.00
2018-02-09T06:40:24.973Z,280.00
2018-02-09T06:42:16.735Z,332.00
2018-02-09T06:43:16.694Z,372.00
2018-02-09T06:45:08.450Z,432.00
2018-02-09T06:46:08.322Z,456.00
2018-02-09T06:48:00.084Z,504.00
2018-02-09T06:48:59.988Z,528.00
2018-02-09T06:50:51.725Z,564.00
2018-02-09T06:51:51.657Z,592.00
2018-02-09T06:53:43.411Z,632.00
2018-02-09T06:54:43.430Z,660.00
2018-02-09T06:56:35.136Z,700.00
2018-02-09T06:57:35.050Z,732.00
2018-02-09T06:59:26.774Z,808.00
2018-02-09T07:00:26.699Z,840.00
2018-02-09T07:02:18.447Z,840.00
2018-02-09T07:03:18.709Z,832.00
2018-02-09T07:05:10.091Z,820.00
2018-02-09T07:06:10.073Z,824.00
2018-02-09T07:08:01.946Z,844.00
2018-02-09T07:09:01.720Z,840.00
2018-02-09T07:10:54.065Z,872.00
2018-02-09T07:11:53.347Z,876.00
2018-02-09T07:13:45.395Z,892.00
2018-02-09T07:14:45.304Z,912.00
2018-02-09T07:16:37.092Z,956.00
2018-02-09T07:17:37.032Z,988.00
2018-02-09T07:19:28.719Z,1036.00
2018-02-09T07:20:28.698Z,1068.00
2018-02-09T07:22:20.485Z,1188.00
2018-02-09T07:23:20.577Z,1220.00
2018-02-09T07:25:12.217Z,1260.00
2018-02-09T07:26:12.147Z,1344.00
2018-02-09T07:28:04.783Z,1460.00
2018-02-09T07:29:04.191Z,1572.00
2018-02-09T07:30:55.931Z,1856.00
2018-02-09T07:31:55.854Z,1976.00
2018-02-09T07:33:47.655Z,2060.00
2018-02-09T07:34:47.574Z,2060.00
2018-02-09T07:36:39.323Z,2092.00
2018-02-09T07:37:39.242Z,2104.00
2018-02-09T07:39:31.195Z,2128.00
2018-02-09T07:40:30.909Z,2124.00
2018-02-09T07:42:22.947Z,2240.00
2018-02-09T07:43:22.665Z,2340.00
2018-02-09T07:45:14.500Z,2308.00
2018-02-09T07:46:14.357Z,2260.00
2018-02-09T07:48:06.161Z,2260.00
2018-02-09T07:49:06.032Z,2300.00
2018-02-09T07:50:57.841Z,2360.00
2018-02-09T07:51:57.727Z,2428.00
2018-02-09T07:53:49.642Z,2512.00
2018-02-09T07:54:49.727Z,2588.00
2018-02-09T07:56:41.371Z,2752.00
2018-02-09T07:57:41.223Z,2832.00
2018-02-09T07:59:32.971Z,2940.00
2018-02-09T08:00:32.892Z,2968.00
2018-02-09T08:02:24.642Z,2996.00
2018-02-09T08:03:24.629Z,3068.00
2018-02-09T08:05:16.496Z,3176.00
2018-02-09T08:06:16.322Z,3224.00
2018-02-09T08:08:08.022Z,3404.00
2018-02-09T08:09:07.944Z,3436.00
2018-02-09T08:10:59.993Z,3544.00
2018-02-09T08:11:59.762Z,3588.00
2018-02-09T08:13:51.473Z,3636.00
2018-02-09T08:14:51.375Z,3728.00
2018-02-09T08:16:43.365Z,3756.00
2018-02-09T08:17:43.126Z,3720.00
2018-02-09T08:19:34.887Z,3872.00
2018-02-09T08:20:34.787Z,3960.00
2018-02-09T08:22:26.532Z,3904.00
2018-02-09T08:23:26.484Z,4104.00
2018-02-09T08:25:18.246Z,4472.00
2018-02-09T08:26:18.137Z,4540.00
2018-02-09T08:28:09.905Z,4672.00
2018-02-09T08:29:09.797Z,4712.00
2018-02-09T08:31:01.694Z,4800.00
2018-02-09T08:32:01.678Z,4800.00
2018-02-09T08:33:53.496Z,4688.00
2018-02-09T08:34:53.436Z,4724.00
2018-02-09T08:36:45.194Z,5008.00
2018-02-09T08:37:45.105Z,5172.00
2018-02-09T08:39:36.868Z,5328.00
2018-02-09T08:40:36.799Z,5432.00
2018-02-09T08:42:28.637Z,5572.00
2018-02-09T08:43:28.579Z,5936.00
2018-02-09T08:45:20.310Z,6956.00
2018-02-09T08:46:20.214Z,7312.00
2018-02-09T08:48:11.942Z,8108.00
2018-02-09T08:49:11.878Z,8640.00
2018-02-09T08:51:03.891Z,8400.00
2018-02-09T08:52:03.556Z,8552.00
2018-02-09T08:53:55.323Z,10020.00
2018-02-09T08:54:55.266Z,10696.00
2018-02-09T08:56:47.173Z,10836.00
2018-02-09T08:57:47.061Z,11364.00
2018-02-09T08:59:38.908Z,13496.00
2018-02-09T09:00:38.820Z,13724.00
2018-02-09T09:02:30.783Z,16928.00
2018-02-09T09:03:30.674Z,15584.00
2018-02-09T09:05:22.566Z,22144.00
2018-02-09T09:06:22.520Z,25120.00
2018-02-09T09:08:14.338Z,37536.00
2018-02-09T09:09:14.337Z,32192.00
2018-02-09T09:11:06.114Z,27840.00
2018-02-09T09:12:06.035Z,29024.00
2018-02-09T09:13:57.792Z,31680.00
2018-02-09T09:14:57.867Z,33216.00
2018-02-09T09:16:49.564Z,24768.00
2018-02-09T09:17:49.449Z,20864.00
2018-02-09T09:19:41.257Z,36320.00
2018-02-09T09:20:41.146Z,38080.00
2018-02-09T09:22:32.999Z,35200.00
2018-02-09T09:23:32.994Z,33280.00
2018-02-09T09:25:24.610Z,34592.00
2018-02-09T09:26:24.560Z,34944.00
2018-02-09T09:28:16.327Z,28960.00
2018-02-09T09:29:16.249Z,26432.00
2018-02-09T09:31:08.224Z,27456.00
2018-02-09T09:32:07.957Z,28160.00
2018-02-09T09:33:59.855Z,29312.00
2018-02-09T09:34:59.734Z,26336.00
2018-02-09T09:36:51.711Z,33792.00
2018-02-09T09:37:51.603Z,33792.00
2018-02-09T09:39:43.352Z,38080.00
2018-02-09T09:40:43.275Z,39360.00
2018-02-09T09:42:35.066Z,40384.00
2018-02-09T09:43:34.964Z,38176.00
2018-02-09T09:45:26.722Z,39520.00
2018-02-09T09:46:26.718Z,39392.00
2018-02-09T09:48:18.516Z,39872.00
2018-02-09T09:49:18.377Z,41536.00
2018-02-09T09:51:11.236Z,41216.00
2018-02-09T09:52:11.158Z,42080.00
2018-02-09T09:54:03.567Z,42464.00
2018-02-09T09:55:02.867Z,41664.00
2018-02-09T09:56:54.618Z,42624.00
2018-02-09T09:57:54.556Z,43008.00
2018-02-09T09:59:46.330Z,41696.00
2018-02-09T10:00:46.318Z,42432.00
2018-02-09T10:02:38.170Z,44864.00
2018-02-09T10:03:37.994Z,46240.00
2018-02-09T10:05:29.810Z,35200.00
2018-02-09T10:06:29.706Z,34240.00
2018-02-09T10:08:21.604Z,37984.00
2018-02-09T10:09:21.440Z,38976.00
2018-02-09T10:11:13.398Z,43328.00
2018-02-09T10:12:13.289Z,44000.00
2018-02-09T10:14:05.124Z,42432.00
2018-02-09T10:15:05.026Z,44224.00
2018-02-09T10:16:56.796Z,41536.00
2018-02-09T10:17:56.731Z,43616.00
2018-02-09T10:19:49.108Z,29120.00
2018-02-09T10:20:48.425Z,34752.00
2018-02-09T10:22:40.845Z,32224.00
2018-02-09T10:23:40.189Z,35936.00
2018-02-09T10:25:32.064Z,38848.00
2018-02-09T10:26:31.961Z,38912.00
2018-02-09T10:28:23.923Z,30848.00
2018-02-09T10:29:23.730Z,34048.00
2018-02-09T10:31:15.493Z,22496.00
2018-02-09T10:32:15.483Z,25888.00
2018-02-09T10:34:07.199Z,30656.00
2018-02-09T10:35:07.793Z,35424.00
2018-02-09T10:36:59.121Z,25984.00
2018-02-09T10:37:58.929Z,25024.00
2018-02-09T10:39:50.786Z,30752.00
2018-02-09T10:40:50.708Z,27104.00
2018-02-09T10:42:42.528Z,20064.00
2018-02-09T10:43:42.406Z,20512.00
2018-02-09T10:45:34.323Z,17632.00
2018-02-09T10:46:34.174Z,17952.00
2018-02-09T10:48:25.964Z,21120.00
2018-02-09T10:49:25.880Z,19456.00
2018-02-09T10:51:17.634Z,19040.00
2018-02-09T10:52:17.571Z,25888.00
2018-02-09T10:54:09.562Z,33792.00
2018-02-09T10:55:09.307Z,32672.00
2018-02-09T10:57:01.274Z,33920.00
2018-02-09T10:58:01.156Z,34048.00
2018-02-09T10:59:53.031Z,32256.00
2018-02-09T11:00:52.856Z,29760.00
2018-02-09T11:02:44.791Z,23840.00
2018-02-09T11:03:44.783Z,19040.00
2018-02-09T11:05:36.455Z,17312.00
2018-02-09T11:06:36.374Z,15720.00
2018-02-09T11:08:28.159Z,14252.00
2018-02-09T11:10:39.882Z,15772.00
2018-02-09T11:11:39.804Z,18272.00
2018-02-09T11:13:32.808Z,17152.00
2018-02-09T11:14:32.538Z,17312.00
2018-02-09T11:16:26.171Z,13884.00
2018-02-09T11:17:26.098Z,12604.00
2018-02-09T11:19:18.519Z,11140.00
2018-02-09T11:20:18.002Z,11036.00
2018-02-09T11:22:10.870Z,11548.00
2018-02-09T11:23:10.718Z,11488.00
2018-02-09T11:25:02.590Z,10656.00
2018-02-09T11:26:02.702Z,10852.00
2018-02-09T11:27:54.340Z,10756.00
2018-02-09T11:28:54.251Z,10776.00
2018-02-09T11:30:46.182Z,10288.00
2018-02-09T11:31:46.027Z,9824.00
2018-02-09T11:33:38.015Z,9444.00
2018-02-09T11:34:37.839Z,9284.00
2018-02-09T11:36:29.757Z,8784.00
2018-02-09T11:37:29.664Z,8692.00
2018-02-09T11:39:21.601Z,8736.00
2018-02-09T11:40:21.520Z,9016.00
2018-02-09T11:42:13.387Z,8544.00
2018-02-09T11:43:13.301Z,8332.00
2018-02-09T11:45:05.132Z,8184.00
2018-02-09T11:46:05.049Z,8108.00
2018-02-09T11:47:57.856Z,7964.00
2018-02-09T11:48:57.796Z,7984.00
2018-02-09T11:50:50.514Z,7916.00
2018-02-09T11:51:50.451Z,7968.00
2018-02-09T11:53:42.343Z,8860.00
2018-02-09T11:54:42.255Z,9624.00
2018-02-09T11:56:34.061Z,11164.00
2018-02-09T11:57:33.994Z,11704.00
2018-02-09T11:59:26.789Z,12448.00
2018-02-09T12:00:26.689Z,12452.00
2018-02-09T12:02:18.673Z,12116.00
2018-02-09T12:03:18.572Z,12092.00
2018-02-09T12:05:10.483Z,12724.00
2018-02-09T12:06:10.410Z,13232.00
2018-02-09T12:08:02.257Z,12532.00
2018-02-09T12:09:02.122Z,11748.00
2018-02-09T12:10:54.917Z,10156.00
2018-02-09T12:11:54.845Z,9792.00
2018-02-09T12:13:46.766Z,9716.00
2018-02-09T12:14:46.704Z,9528.00
2018-02-09T12:16:38.522Z,10132.00
2018-02-09T12:17:38.637Z,10320.00
2018-02-09T12:19:30.792Z,11308.00
2018-02-09T12:20:30.109Z,11464.00
2018-02-09T12:22:21.839Z,11336.00
2018-02-09T12:23:21.784Z,11052.00
2018-02-09T12:25:13.820Z,10584.00
2018-02-09T12:26:13.676Z,10672.00
2018-02-09T12:28:05.510Z,10980.00
2018-02-09T12:29:05.416Z,10704.00
2018-02-09T12:30:58.221Z,10352.00
2018-02-09T12:31:58.128Z,10296.00
2018-02-09T12:33:50.927Z,9676.00
2018-02-09T12:34:50.836Z,9652.00
2018-02-09T12:36:42.617Z,10436.00
2018-02-09T12:37:42.536Z,10328.00
2018-02-09T12:39:34.483Z,9828.00
2018-02-09T12:40:34.413Z,9796.00
2018-02-09T12:42:26.177Z,9560.00
2018-02-09T12:43:26.117Z,9000.00
2018-02-09T12:45:17.913Z,9192.00
2018-02-09T12:46:17.831Z,9244.00
2018-02-09T12:48:09.694Z,9336.00
2018-02-09T12:49:09.613Z,8788.00
2018-02-09T12:51:02.470Z,9060.00
2018-02-09T12:52:02.373Z,9016.00
2018-02-09T12:53:54.204Z,8576.00
2018-02-09T12:54:54.110Z,8664.00
2018-02-09T12:56:45.834Z,8748.00
2018-02-09T12:57:45.781Z,8912.00
2018-02-09T12:59:37.631Z,8780.00
2018-02-09T13:00:37.502Z,8696.00
2018-02-09T13:02:30.304Z,8628.00
2018-02-09T13:03:30.249Z,8680.00
2018-02-09T13:05:22.003Z,8664.00
2018-02-09T13:06:21.913Z,8412.00
2018-02-09T13:08:14.728Z,7828.00
2018-02-09T13:09:14.674Z,7900.00
2018-02-09T13:11:06.442Z,8184.00
2018-02-09T13:12:06.387Z,8076.00
2018-02-09T13:13:59.241Z,7824.00
2018-02-09T13:14:59.057Z,7880.00
2018-02-09T13:16:51.886Z,7812.00
2018-02-09T13:17:51.789Z,7800.00
2018-02-09T13:19:43.584Z,7708.00
2018-02-09T13:20:43.466Z,7624.00
2018-02-09T13:22:35.206Z,7484.00
2018-02-09T13:23:35.140Z,7460.00
2018-02-09T13:25:26.923Z,7328.00
2018-02-09T13:26:26.850Z,7248.00
2018-02-09T13:28:18.624Z,7200.00
2018-02-09T13:29:18.584Z,7124.00
2018-02-09T13:31:10.449Z,7024.00
2018-02-09T13:32:10.398Z,7032.00
2018-02-09T13:34:02.123Z,6924.00
2018-02-09T13:35:02.087Z,6856.00
2018-02-09T13:36:53.859Z,6848.00
2018-02-09T13:37:53.732Z,6868.00
2018-02-09T13:39:45.479Z,6792.00
2018-02-09T13:40:45.412Z,6736.00
2018-02-09T13:42:37.238Z,6700.00
2018-02-09T13:43:37.242Z,6660.00
2018-02-09T13:45:29.943Z,6556.00
2018-02-09T13:46:29.859Z,6516.00
2018-02-09T13:48:21.634Z,6380.00
2018-02-09T13:49:21.563Z,6340.00
2018-02-09T13:51:14.369Z,6276.00
2018-02-09T13:52:14.270Z,6288.00
2018-02-09T13:54:06.212Z,6204.00
2018-02-09T13:55:06.173Z,6156.00
2018-02-09T13:56:57.926Z,6116.00
2018-02-09T13:57:57.862Z,6072.00
2018-02-09T13:59:49.641Z,5992.00
2018-02-09T14:00:49.575Z,5944.00
2018-02-09T14:02:41.450Z,5884.00
2018-02-09T14:03:41.358Z,5888.00
2018-02-09T14:05:33.190Z,5736.00
2018-02-09T14:06:33.117Z,5648.00
2018-02-09T14:08:25.026Z,5576.00
2018-02-09T14:09:24.921Z,5524.00
2018-02-09T14:11:16.705Z,5432.00
2018-02-09T14:12:16.629Z,5384.00
2018-02-09T14:14:08.450Z,5328.00
2018-02-09T14:15:08.455Z,5164.00
2018-02-09T14:17:00.154Z,5016.00
2018-02-09T14:18:00.131Z,4976.00
2018-02-09T14:19:51.944Z,4916.00
2018-02-09T14:20:51.875Z,4952.00
2018-02-09T14:22:43.621Z,4832.00
2018-02-09T14:23:43.526Z,4836.00
2018-02-09T14:25:35.438Z,4744.00
2018-02-09T14:26:35.306Z,4636.00
2018-02-09T14:28:27.177Z,4560.00
2018-02-09T14:29:27.138Z,4524.00
2018-02-09T14:31:18.836Z,4444.00
2018-02-09T14:32:18.764Z,4356.00
2018-02-09T14:34:10.642Z,4320.00
2018-02-09T14:35:10.543Z,4256.00
2018-02-09T14:37:02.338Z,4148.00
2018-02-09T14:38:02.208Z,4068.00
2018-02-09T14:39:54.077Z,3924.00
2018-02-09T14:40:53.973Z,3876.00
2018-02-09T14:42:45.715Z,3840.00
2018-02-09T14:43:45.646Z,3792.00
2018-02-09T14:45:37.435Z,3744.00
2018-02-09T14:46:37.387Z,3692.00
2018-02-09T14:48:30.093Z,3596.00
2018-02-09T14:49:30.017Z,3532.00
2018-02-09T14:51:22.808Z,3408.00
2018-02-09T14:52:22.741Z,3328.00
2018-02-09T14:54:14.644Z,3232.00
2018-02-09T14:55:14.546Z,3164.00
2018-02-09T14:57:07.315Z,3048.00
2018-02-09T14:58:07.289Z,2996.00
2018-02-09T15:00:00.071Z,2880.00
2018-02-09T15:00:59.967Z,2848.00
2018-02-09T15:02:51.728Z,2708.00
2018-02-09T15:03:51.603Z,2644.00
2018-02-09T15:05:43.532Z,2552.00
2018-02-09T15:06:43.419Z,2496.00
2018-02-09T15:08:35.232Z,2396.00
2018-02-09T15:09:35.084Z,2336.00
2018-02-09T15:11:27.992Z,2236.00
2018-02-09T15:12:27.826Z,2184.00
2018-02-09T15:14:20.767Z,2096.00
2018-02-09T15:15:20.557Z,2044.00
2018-02-09T15:17:12.398Z,1952.00
2018-02-09T15:18:12.258Z,1900.00
2018-02-09T15:20:04.085Z,1808.00
2018-02-09T15:21:03.939Z,1764.00
2018-02-09T15:22:55.739Z,1684.00
2018-02-09T15:23:55.625Z,1640.00
2018-02-09T15:25:47.613Z,1560.00
2018-02-09T15:26:47.525Z,1516.00
2018-02-09T15:28:40.402Z,1436.00
2018-02-09T15:29:40.322Z,1388.00
2018-02-09T15:31:32.161Z,1308.00
2018-02-09T15:32:32.022Z,1264.00
2018-02-09T15:34:24.768Z,1188.00
2018-02-09T15:35:24.696Z,1152.00
2018-02-09T15:37:17.603Z,1080.00
2018-02-09T15:38:17.391Z,1044.00
2018-02-09T15:40:09.415Z,984.00
2018-02-09T15:41:09.341Z,936.00
2018-02-09T15:43:01.076Z,872.00
2018-02-09T15:44:01.054Z,836.00
2018-02-09T15:45:52.826Z,772.00
2018-02-09T15:46:52.752Z,736.00
2018-02-09T15:48:44.638Z,672.00
2018-02-09T15:49:44.538Z,636.00
2018-02-09T15:51:36.542Z,576.00
2018-02-09T15:52:36.305Z,540.00
2018-02-09T15:54:29.066Z,484.00
2018-02-09T15:55:28.992Z,452.00
2018-02-09T15:57:21.929Z,404.00
2018-02-09T15:58:21.765Z,380.00
2018-02-09T16:00:14.451Z,332.00
2018-02-09T16:01:14.451Z,312.00
2018-02-09T16:03:06.315Z,272.00
2018-02-09T16:04:06.208Z,252.00
2018-02-09T16:05:58.134Z,216.00
2018-02-09T16:06:58.039Z,196.00
2018-02-09T16:08:50.806Z,164.00
2018-02-09T16:09:50.723Z,152.00
2018-02-09T16:11:42.605Z,128.00
2018-02-09T16:12:42.551Z,112.00
2018-02-09T16:14:34.328Z,92.00
2018-02-09T16:15:34.256Z,80.00
2018-02-09T16:17:26.069Z,64.00
2018-02-09T16:18:25.963Z,56.00
2018-02-09T16:20:17.814Z,44.00
2018-02-09T16:21:17.851Z,40.00
2018-02-09T16:23:09.864Z,28.00
2018-02-09T16:24:10.108Z,24.00
2018-02-09T16:26:02.509Z,16.00
2018-02-09T16:27:02.456Z,16.00
2018-02-09T16:28:54.305Z,12.00
2018-02-09T16:29:54.189Z,8.00
2018-02-09T16:31:45.972Z,8.00
2018-02-09T16:32:45.907Z,8.00
2018-02-09T16:34:37.672Z,4.00
2018-02-09T16:35:37.585Z,0.00
2018-02-09T16:37:30.470Z,4.00
2018-02-09T16:38:30.268Z,0.00
2018-02-09T16:40:22.174Z,4.00
2018-02-09T16:41:22.087Z,0.00
2018-02-09T16:43:14.827Z,0.00
2018-02-09T16:44:14.742Z,0.00
2018-02-09T16:46:06.800Z,0.00
2018-02-09T16:47:06.716Z,0.00
2018-02-09T16:48:58.524Z,0.00
2018-02-09T16:49:58.564Z,0.00
2018-02-09T16:51:50.235Z,0.00
2018-02-09T16:52:50.153Z,0.00
2018-02-09T16:54:41.904Z,0.00
2018-02-09T16:55:41.825Z,0.00
2018-02-09T16:57:33.702Z,0.00
2018-02-09T16:58:33.578Z,0.00
2018-02-09T17:00:25.388Z,0.00
2018-02-09T17:01:25.247Z,0.00
2018-02-09T17:03:17.184Z,0.00
2018-02-09T17:04:17.213Z,0.00
2018-02-09T17:06:11.499Z,0.00
2018-02-09T17:07:10.690Z,0.00
2018-02-09T17:09:02.620Z,0.00
2018-02-09T17:10:02.437Z,0.00
2018-02-09T17:11:55.306Z,0.00
2018-02-09T17:12:55.173Z,0.00
2018-02-09T17:14:46.952Z,0.00
2018-02-09T17:15:46.839Z,0.00
2018-02-09T17:17:38.575Z,0.00
2018-02-09T17:18:38.605Z,0.00
2018-02-09T17:20:31.264Z,0.00
2018-02-09T17:21:31.189Z,0.00
2018-02-09T17:23:23.150Z,0.00
2018-02-09T17:24:22.917Z,0.00
2018-02-09T17:26:14.908Z,0.00
2018-02-09T17:27:14.684Z,0.00
2018-02-09T17:29:06.442Z,0.00
2018-02-09T17:30:06.433Z,0.00
2018-02-09T17:31:59.404Z,0.00
2018-02-09T17:32:59.104Z,0.00
2018-02-09T17:34:51.933Z,0.00
2018-02-09T17:35:51.753Z,0.00
2018-02-09T17:37:44.871Z,0.00
2018-02-09T17:38:44.821Z,0.00
2018-02-09T17:40:36.556Z,0.00
2018-02-09T17:41:36.461Z,0.00
2018-02-09T17:43:28.273Z,0.00
2018-02-09T17:44:28.352Z,0.00
2018-02-09T17:46:19.988Z,0.00
2018-02-09T17:47:19.981Z,0.00
2018-02-09T17:49:12.695Z,0.00
2018-02-09T17:50:12.588Z,0.00
2018-02-09T17:52:04.473Z,0.00
2018-02-09T17:53:04.374Z,0.00
2018-02-09T17:54:56.224Z,0.00
2018-02-09T17:55:56.081Z,0.00
2018-02-09T17:57:47.815Z,0.00
2018-02-09T17:58:47.739Z,0.00
2018-02-09T18:00:39.839Z,0.00
2018-02-09T18:01:39.751Z,0.00